KATL/ATL METAR and TAF weather

Enter ICAO airport designator
Station Type Date Time Source
KATL METAR 2019/10/21 01:52 UTC NOAA

KATL 210152Z 31005KT 10SM FEW200 SCT250 19/15 A2997 RMK AO2 SLP145 T01890150 $


Station Type Date Time Source
KATL Decoded METAR 2019/10/21 01:52 UTC NOAA

HARTSFIELD-JACKSON ATLANTA, GA, United States (KATL) 33-39N 84-26W
Oct 20, 2019 - 09:52 PM EDT / 2019.10.21 0152 UTC
Wind: from the NW (310 degrees) at 6 MPH (5 KT):0
Visibility: 10 mile(s):0
Sky conditions: partly cloudy
Temperature: 66.0 F (18.9 C)
Dew Point: 59.0 F (15.0 C)
Relative Humidity: 78%
Pressure (altimeter): 29.97 in. Hg (1014 hPa)
ob: KATL 210152Z 31005KT 10SM FEW200 SCT250 19/15 A2997 RMK AO2 SLP145 T01890150
cycle: 2

Station Type Date Time Source
KATL TAF 2019/10/21 02:33 UTC NOAA

TAF
AMD KATL 210130Z 2102/2206 30003KT P6SM SCT250
FM210900 10003KT 5SM BR SCT009
TEMPO 2109/2112 BKN009
FM211200 11004KT 6SM BR BKN009
FM211500 13008KT P6SM SCT020 SCT040
FM211700 16008KT P6SM SCT040 BKN090
FM220200 15007KT P6SM -SHRA SCT010 OVC020 PROB30 2202/2206 6SM TSRA SCT005 OVC010CB

Example: see airport list